Time;durP1;ratioP1;P1;durP2;ratioP2;P2;SDS_P1;SDS_P2;PMS_P1;PMS_P2;Temp;Humidity;BMP_temperature;BMP_pressure;BME280_temperature;BME280_humidity;BME280_pressure;Samples;Min_cycle;Max_cycle;Signal;HPM_P1;HPM_P2
2021/05/16 00:00:52;;;;;;;18.30;3.63;;;12.00;88.80;;;;;;5093826;28;20514;-85
2021/05/16 00:03:18;;;;;;;14.05;3.58;;;12.00;89.00;;;;;;5093881;28;20539;-85
2021/05/16 00:05:44;;;;;;;16.77;3.30;;;12.00;88.90;;;;;;5093829;28;20388;-85
2021/05/16 00:08:10;;;;;;;17.10;3.67;;;11.90;88.70;;;;;;5093688;28;20473;-85
2021/05/16 00:10:36;;;;;;;22.13;4.15;;;11.90;89.00;;;;;;5075623;28;20043;-86
2021/05/16 00:13:02;;;;;;;14.63;3.55;;;11.90;88.80;;;;;;5093523;28;20069;-84
2021/05/16 00:15:30;;;;;;;16.92;3.47;;;11.90;88.90;;;;;;5093631;28;20028;-84
2021/05/16 00:17:56;;;;;;;21.35;3.60;;;11.90;89.20;;;;;;5092256;28;20417;-85
2021/05/16 00:20:25;;;;;;;18.83;4.07;;;11.90;89.10;;;;;;5093473;28;20047;-85
2021/05/16 00:22:51;;;;;;;;;;;11.90;89.00;;;;;;5093979;28;20476;-86
2021/05/16 00:25:18;;;;;;;14.18;3.60;;;11.80;88.60;;;;;;5075116;28;19915;-85
2021/05/16 00:27:45;;;;;;;22.15;4.93;;;11.80;89.00;;;;;;5093554;28;20067;-86
2021/05/16 00:30:13;;;;;;;23.35;4.35;;;11.70;89.00;;;;;;5093349;28;20476;-85
2021/05/16 00:32:39;;;;;;;22.30;4.00;;;11.70;89.00;;;;;;5096362;28;20035;-85
2021/05/16 00:35:07;;;;;;;22.25;3.58;;;11.70;88.80;;;;;;5087824;28;20090;-85
2021/05/16 00:37:33;;;;;;;17.70;3.65;;;11.70;88.90;;;;;;5061928;28;20051;-86
2021/05/16 00:39:58;;;;;;;28.77;4.55;;;11.70;89.10;;;;;;5079660;28;20032;-86
2021/05/16 00:42:24;;;;;;;24.65;4.65;;;11.70;88.90;;;;;;5083865;28;20053;-85
2021/05/16 00:45:00;;;;;;;21.75;4.28;;;11.70;89.00;;;;;;5100028;28;20028;-84
2021/05/16 00:47:26;;;;;;;14.68;3.63;;;11.80;88.70;;;;;;5099612;28;20479;-85
2021/05/16 00:49:52;;;;;;;19.95;4.00;;;11.70;88.50;;;;;;5096688;28;20055;-85
2021/05/16 00:52:18;;;;;;;18.27;4.10;;;11.80;88.80;;;;;;5079416;28;20028;-85
2021/05/16 00:54:45;;;;;;;16.48;3.60;;;11.70;88.70;;;;;;5083072;28;20488;-85
2021/05/16 00:57:11;;;;;;;21.42;3.83;;;11.70;88.90;;;;;;5099718;28;20071;-86
2021/05/16 00:59:40;;;;;;;15.45;3.55;;;11.70;88.70;;;;;;5100028;28;20052;-85
2021/05/16 01:02:05;;;;;;;16.83;3.55;;;11.80;88.60;;;;;;5093454;28;20028;-85
2021/05/16 01:04:31;;;;;;;21.42;3.78;;;11.70;88.50;;;;;;5099907;28;20089;-86
2021/05/16 01:06:57;;;;;;;18.05;3.38;;;11.70;88.50;;;;;;5063530;28;20029;-85
2021/05/16 01:09:24;;;;;;;19.00;4.18;;;11.70;88.60;;;;;;5045041;28;20041;-85
2021/05/16 01:11:51;;;;;;;21.83;3.70;;;11.70;88.70;;;;;;5079786;28;20028;-86
2021/05/16 01:14:30;;;;;;;18.00;3.50;;;11.70;88.70;;;;;;5099914;28;20427;-86
2021/05/16 01:16:56;;;;;;;14.93;3.50;;;11.70;88.90;;;;;;5099651;28;20027;-85
2021/05/16 01:19:21;;;;;;;18.35;4.00;;;11.70;89.00;;;;;;5081532;28;20024;-86
2021/05/16 01:21:47;;;;;;;19.52;4.65;;;11.70;89.00;;;;;;5081350;28;20035;-85
2021/05/16 01:24:18;;;;;;;19.25;3.78;;;11.70;89.00;;;;;;5099724;28;20096;-86
2021/05/16 01:26:47;;;;;;;24.27;4.10;;;11.70;88.90;;;;;;5099756;28;20050;-86
2021/05/16 01:29:14;;;;;;;21.65;4.05;;;11.80;88.40;;;;;;5099681;28;20361;-86
2021/05/16 01:31:40;;;;;;;23.42;4.28;;;11.70;88.40;;;;;;5092757;28;20571;-85
2021/05/16 01:34:07;;;;;;;23.02;4.40;;;11.70;88.50;;;;;;5099560;28;20546;-86
2021/05/16 01:36:35;;;;;;;20.00;3.83;;;11.70;88.50;;;;;;5081223;28;20028;-85
2021/05/16 01:39:05;;;;;;;17.08;4.03;;;11.70;88.60;;;;;;5079463;28;20485;-85
2021/05/16 01:41:31;;;;;;;25.10;3.97;;;11.70;88.70;;;;;;5079179;28;20032;-86
2021/05/16 01:43:58;;;;;;;23.15;4.18;;;11.70;88.70;;;;;;5076800;28;20519;-86
2021/05/16 01:46:24;;;;;;;28.23;4.53;;;11.70;88.80;;;;;;5076046;28;20028;-84
2021/05/16 01:48:50;;;;;;;13.45;3.28;;;11.70;88.70;;;;;;5076182;28;20076;-86
2021/05/16 01:51:16;;;;;;;29.00;3.95;;;11.60;88.70;;;;;;5084596;28;20067;-86
2021/05/16 01:53:42;;;;;;;19.08;3.78;;;11.60;88.20;;;;;;5096027;28;20044;-86
2021/05/16 01:56:08;;;;;;;19.63;3.88;;;11.50;88.20;;;;;;5096087;28;20393;-86
2021/05/16 01:58:39;;;;;;;21.20;3.65;;;11.50;88.20;;;;;;5078051;28;20024;-85
2021/05/16 02:01:05;;;;;;;25.38;4.38;;;11.50;88.20;;;;;;5074171;28;20119;-85
2021/05/16 02:03:32;;;;;;;22.83;4.25;;;11.50;88.10;;;;;;5096039;28;20032;-86
2021/05/16 02:05:59;;;;;;;22.08;3.78;;;11.40;88.00;;;;;;5077823;28;20036;-86
2021/05/16 02:08:25;;;;;;;23.98;4.40;;;11.40;88.00;;;;;;5095764;28;20075;-86
2021/05/16 02:10:51;;;;;;;24.45;4.38;;;11.30;87.70;;;;;;5077704;28;20075;-86
2021/05/16 02:13:17;;;;;;;25.15;4.25;;;11.30;87.60;;;;;;5095720;28;20480;-85
2021/05/16 02:15:43;;;;;;;26.17;4.18;;;11.30;87.60;;;;;;5095681;28;20016;-86
2021/05/16 02:18:13;;;;;;;19.08;3.42;;;11.30;87.70;;;;;;5095636;28;20543;-85
2021/05/16 02:20:39;;;;;;;22.58;3.55;;;11.20;87.70;;;;;;5095765;28;20033;-86
2021/05/16 02:23:05;;;;;;;21.63;3.85;;;11.20;87.80;;;;;;5095593;28;20133;-85
2021/05/16 02:25:30;;;;;;;24.83;3.50;;;11.10;87.80;;;;;;5095475;28;20032;-86
2021/05/16 02:27:56;;;;;;;20.75;3.38;;;11.10;87.80;;;;;;5077604;28;20036;-86
2021/05/16 02:30:23;;;;;;;20.85;4.15;;;11.00;87.70;;;;;;5095530;28;20039;-86
2021/05/16 02:32:49;;;;;;;18.70;3.58;;;11.00;87.70;;;;;;5094268;28;20077;-85
2021/05/16 02:35:15;;;;;;;27.63;3.78;;;11.00;87.70;;;;;;5095319;28;20024;-85
2021/05/16 02:37:41;;;;;;;18.75;3.42;;;10.90;87.80;;;;;;5095199;28;20114;-85
2021/05/16 02:40:07;;;;;;;18.42;3.83;;;10.90;87.70;;;;;;5095209;28;20027;-85
2021/05/16 02:42:33;;;;;;;19.95;3.42;;;10.80;87.70;;;;;;5095315;28;20078;-85
2021/05/16 02:44:58;;;;;;;21.10;3.22;;;10.90;87.80;;;;;;5095145;28;20028;-85
2021/05/16 02:47:24;;;;;;;27.75;3.42;;;10.80;87.80;;;;;;5076876;28;20031;-85
2021/05/16 02:49:49;;;;;;;17.60;3.28;;;10.70;87.80;;;;;;5076952;28;20037;-85
2021/05/16 02:52:15;;;;;;;18.50;3.20;;;10.70;87.70;;;;;;5095021;28;20056;-85
2021/05/16 02:54:42;;;;;;;17.35;3.67;;;10.70;87.70;;;;;;5094218;28;20048;-85
2021/05/16 02:57:08;;;;;;;15.57;3.10;;;10.60;87.70;;;;;;5086808;28;20032;-85
2021/05/16 02:59:34;;;;;;;13.60;3.00;;;10.60;87.70;;;;;;5088546;28;20449;-85
2021/05/16 03:02:00;;;;;;;16.02;3.80;;;10.60;87.80;;;;;;5076421;28;20024;-85
2021/05/16 03:04:26;;;;;;;18.52;3.50;;;10.50;87.90;;;;;;5092022;28;20016;-85
2021/05/16 03:06:52;;;;;;;15.38;3.08;;;10.50;88.00;;;;;;5075821;28;20039;-86
2021/05/16 03:09:17;;;;;;;12.48;2.80;;;10.50;88.10;;;;;;5072700;28;20032;-85
2021/05/16 03:11:43;;;;;;;14.15;3.60;;;10.50;88.10;;;;;;5074969;28;20035;-85
2021/05/16 03:14:09;;;;;;;12.90;2.83;;;10.40;88.10;;;;;;5074154;28;20035;-85
2021/05/16 03:16:35;;;;;;;16.35;3.28;;;10.40;88.20;;;;;;5089652;28;20530;-86
2021/05/16 03:19:01;;;;;;;15.95;3.08;;;10.40;88.30;;;;;;5075454;28;20024;-86
2021/05/16 03:21:26;;;;;;;13.25;2.95;;;10.40;88.40;;;;;;5076063;28;20024;-86
2021/05/16 03:23:52;;;;;;;17.42;3.10;;;10.30;88.40;;;;;;5076241;28;20030;-85
2021/05/16 03:26:17;;;;;;;12.85;2.50;;;10.30;88.40;;;;;;5073253;28;20062;-85
2021/05/16 03:28:43;;;;;;;12.35;2.67;;;10.40;88.50;;;;;;5074071;28;20481;-85
2021/05/16 03:31:09;;;;;;;14.50;3.22;;;10.40;88.70;;;;;;5060018;28;20128;-85
2021/05/16 03:33:34;;;;;;;15.02;2.88;;;10.40;88.80;;;;;;5076177;28;20044;-85
2021/05/16 03:36:00;;;;;;;12.85;3.03;;;10.40;88.90;;;;;;5094171;28;20035;-85
2021/05/16 03:38:25;;;;;;;20.88;2.95;;;10.40;89.00;;;;;;5075997;28;20031;-85
2021/05/16 03:40:51;;;;;;;13.43;2.50;;;10.40;89.00;;;;;;5076002;28;20032;-85
2021/05/16 03:43:20;;;;;;;13.65;3.05;;;10.50;89.00;;;;;;5075909;28;20032;-85
2021/05/16 03:45:45;;;;;;;18.25;2.88;;;10.50;89.10;;;;;;5093985;28;20550;-85
2021/05/16 03:48:11;;;;;;;16.73;3.20;;;10.50;89.20;;;;;;5093775;28;20051;-85
2021/05/16 03:50:36;;;;;;;13.77;2.72;;;10.50;89.40;;;;;;5093637;28;20020;-85
2021/05/16 03:53:02;;;;;;;11.35;2.65;;;10.50;89.40;;;;;;5093680;28;20051;-84
2021/05/16 03:55:28;;;;;;;20.90;3.30;;;10.60;89.60;;;;;;5062768;28;20027;-85
2021/05/16 03:57:54;;;;;;;13.27;2.28;;;10.60;89.60;;;;;;5093760;28;20231;-85
2021/05/16 04:00:20;;;;;;;19.48;3.30;;;10.60;89.70;;;;;;5075424;28;20028;-85
2021/05/16 04:02:46;;;;;;;15.32;2.83;;;10.70;89.70;;;;;;5093802;28;20073;-85
2021/05/16 04:05:13;;;;;;;13.13;2.70;;;10.70;89.70;;;;;;5093572;28;20024;-86
2021/05/16 04:07:39;;;;;;;17.30;3.03;;;10.70;89.70;;;;;;5089493;28;20035;-85
2021/05/16 04:10:06;;;;;;;12.52;2.38;;;10.80;89.80;;;;;;5073229;28;20033;-86
2021/05/16 04:12:31;;;;;;;11.48;2.72;;;10.80;89.80;;;;;;5081822;28;20028;-85
2021/05/16 04:14:57;;;;;;;13.95;3.17;;;10.80;90.00;;;;;;5076915;28;20035;-86
2021/05/16 04:17:23;;;;;;;13.15;3.08;;;10.90;90.00;;;;;;5055148;28;20041;-86
2021/05/16 04:19:48;;;;;;;19.85;3.90;;;10.90;89.90;;;;;;5073294;28;20069;-85
2021/05/16 04:22:14;;;;;;;17.00;3.47;;;10.90;90.00;;;;;;5058251;28;20051;-85
2021/05/16 04:24:40;;;;;;;17.80;3.30;;;10.80;89.80;;;;;;5093078;28;20028;-86
2021/05/16 04:27:05;;;;;;;15.18;3.00;;;10.80;89.90;;;;;;5075292;28;20024;-85
2021/05/16 04:29:31;;;;;;;12.60;2.75;;;10.90;90.30;;;;;;5093253;28;20036;-85
2021/05/16 04:31:57;;;;;;;18.92;3.58;;;10.90;90.00;;;;;;5075370;28;20035;-86
2021/05/16 04:34:23;;;;;;;18.83;3.08;;;10.90;90.10;;;;;;5067374;28;20032;-86
2021/05/16 04:36:48;;;;;;;15.15;3.10;;;11.00;90.00;;;;;;5073059;28;20132;-85
2021/05/16 04:39:14;;;;;;;16.70;3.22;;;11.00;90.00;;;;;;5047302;28;20043;-85
2021/05/16 04:41:40;;;;;;;13.00;2.72;;;11.00;89.70;;;;;;5075023;28;20024;-85
2021/05/16 04:44:06;;;;;;;22.23;3.78;;;11.10;89.80;;;;;;5074995;28;20028;-85
2021/05/16 04:46:31;;;;;;;12.88;2.78;;;11.20;89.90;;;;;;5075162;28;20388;-85
2021/05/16 04:48:57;;;;;;;16.10;3.00;;;11.30;90.00;;;;;;5062301;28;20029;-86
2021/05/16 04:51:23;;;;;;;12.65;2.78;;;11.30;90.00;;;;;;5093002;28;20107;-85
2021/05/16 04:53:48;;;;;;;15.27;3.38;;;11.40;90.00;;;;;;5092844;28;20435;-84
2021/05/16 04:56:15;;;;;;;13.98;3.20;;;11.40;89.90;;;;;;5093118;28;20365;-85
2021/05/16 04:58:41;;;;;;;12.23;2.65;;;11.40;89.70;;;;;;5092464;28;20021;-85
2021/05/16 05:01:07;;;;;;;14.95;3.40;;;11.50;89.50;;;;;;5073964;28;20020;-86
2021/05/16 05:03:34;;;;;;;10.88;2.83;;;11.50;89.40;;;;;;5090353;28;20028;-86
2021/05/16 05:05:59;;;;;;;16.05;3.03;;;11.60;89.40;;;;;;5081093;28;20032;-86
2021/05/16 05:08:26;;;;;;;16.50;3.60;;;11.60;89.00;;;;;;5082763;28;20512;-85
2021/05/16 05:10:52;;;;;;;12.18;2.72;;;11.60;88.70;;;;;;5087330;28;20489;-85
2021/05/16 05:13:18;;;;;;;14.45;3.40;;;11.60;88.60;;;;;;5086997;28;20039;-85
2021/05/16 05:15:44;;;;;;;12.13;3.05;;;11.60;88.60;;;;;;5082623;28;20028;-85
2021/05/16 05:18:09;;;;;;;19.38;3.35;;;11.60;88.50;;;;;;5084113;28;20029;-85
2021/05/16 05:20:35;;;;;;;21.35;3.83;;;11.70;88.50;;;;;;5093598;28;20020;-86
2021/05/16 05:23:01;;;;;;;13.05;3.08;;;11.70;88.30;;;;;;5082494;28;20428;-85
2021/05/16 05:25:28;;;;;;;14.45;3.50;;;11.60;88.20;;;;;;5079217;28;20095;-86
2021/05/16 05:27:55;;;;;;;11.82;2.63;;;11.60;88.30;;;;;;5058526;28;20111;-85
2021/05/16 05:30:24;;;;;;;14.15;2.83;;;11.60;88.40;;;;;;5085933;28;20051;-85
2021/05/16 05:32:50;;;;;;;14.95;2.83;;;11.70;88.70;;;;;;5096027;28;20028;-85
2021/05/16 05:35:16;;;;;;;18.17;3.03;;;11.70;88.60;;;;;;5096208;28;20028;-85
2021/05/16 05:37:43;;;;;;;12.02;3.05;;;11.80;88.40;;;;;;5077264;28;20028;-85
2021/05/16 05:40:09;;;;;;;13.70;2.78;;;11.80;88.20;;;;;;5095812;28;20024;-85
2021/05/16 05:42:35;;;;;;;12.88;2.65;;;11.80;88.10;;;;;;5083429;28;20025;-86
2021/05/16 05:45:01;;;;;;;24.77;3.40;;;11.80;88.10;;;;;;5097313;28;20069;-86
2021/05/16 05:47:26;;;;;;;15.23;3.00;;;11.80;88.10;;;;;;5077686;28;20036;-85
2021/05/16 05:49:53;;;;;;;14.35;2.90;;;11.80;88.20;;;;;;5101687;28;20533;-85
2021/05/16 05:52:19;;;;;;;18.60;3.45;;;11.80;88.30;;;;;;5098842;28;20032;-85
2021/05/16 05:54:44;;;;;;;15.38;3.30;;;11.80;88.20;;;;;;5095940;28;20127;-86
2021/05/16 05:57:10;;;;;;;14.02;2.60;;;11.90;88.50;;;;;;5095798;28;20473;-86
2021/05/16 05:59:36;;;;;;;13.45;3.30;;;12.00;88.70;;;;;;5096105;28;20049;-86
2021/05/16 06:02:03;;;;;;;16.90;3.55;;;12.10;88.50;;;;;;5095717;28;20039;-85
2021/05/16 06:04:29;;;;;;;21.55;4.10;;;12.10;88.20;;;;;;5092859;28;20017;-86
2021/05/16 06:06:55;;;;;;;22.15;4.30;;;12.20;88.10;;;;;;5057752;28;20025;-86
2021/05/16 06:09:21;;;;;;;23.25;3.92;;;12.20;87.30;;;;;;5075458;28;20032;-85
2021/05/16 06:11:46;;;;;;;25.48;4.35;;;12.20;87.20;;;;;;5075598;28;20405;-86
2021/05/16 06:14:12;;;;;;;22.67;4.13;;;12.30;87.40;;;;;;5113167;28;20391;-86
2021/05/16 06:16:38;;;;;;;21.92;4.55;;;12.30;87.50;;;;;;5116094;28;20035;-86
2021/05/16 06:19:04;;;;;;;23.42;4.20;;;12.50;87.60;;;;;;5116154;28;20036;-85
2021/05/16 06:21:29;;;;;;;16.85;3.67;;;12.60;86.30;;;;;;5079410;28;20103;-85
2021/05/16 06:26:36;;;;;;;19.95;3.60;;;12.60;86.40;;;;;;5095868;28;20036;-85
2021/05/16 06:29:06;;;;;;;19.25;4.07;;;12.70;87.20;;;;;;5077331;28;20082;-85
2021/05/16 06:31:32;;;;;;;23.73;5.00;;;12.70;87.10;;;;;;5057390;28;20389;-85
2021/05/16 06:33:58;;;;;;;23.25;4.70;;;12.70;86.40;;;;;;5085409;28;20043;-85
2021/05/16 06:36:24;;;;;;;18.83;4.35;;;12.80;86.30;;;;;;5094648;28;20053;-76
2021/05/16 06:38:50;;;;;;;19.52;3.78;;;12.80;86.90;;;;;;5089737;28;20396;-76
2021/05/16 06:41:16;;;;;;;20.50;4.07;;;12.90;86.40;;;;;;5092740;28;20039;-76
2021/05/16 06:43:42;;;;;;;26.10;4.30;;;12.90;86.30;;;;;;5065983;28;20033;-76
2021/05/16 06:46:08;;;;;;;23.90;5.03;;;12.90;86.30;;;;;;5095232;28;20119;-76
2021/05/16 06:48:35;;;;;;;24.35;5.03;;;12.90;85.60;;;;;;5107481;27;20130;-76
2021/05/16 06:51:03;;;;;;;20.13;4.13;;;13.00;85.80;;;;;;5094693;28;20024;-76
2021/05/16 06:53:28;;;;;;;24.05;4.95;;;13.00;85.90;;;;;;5061116;28;20036;-76
2021/05/16 06:55:54;;;;;;;20.92;4.57;;;13.10;85.60;;;;;;5079348;28;20032;-76
2021/05/16 06:58:19;;;;;;;23.63;4.68;;;13.10;85.80;;;;;;5094548;28;20123;-76
2021/05/16 07:00:45;;;;;;;15.23;3.78;;;13.20;85.40;;;;;;5075527;28;20032;-76
2021/05/16 07:03:11;;;;;;;21.70;4.50;;;13.30;85.40;;;;;;5094472;28;20024;-76
2021/05/16 07:05:37;;;;;;;19.27;4.65;;;13.20;84.80;;;;;;5074951;28;20060;-76
2021/05/16 07:08:03;;;;;;;26.73;4.68;;;13.20;85.00;;;;;;5079166;28;20480;-76
2021/05/16 07:10:28;;;;;;;23.08;4.97;;;13.30;85.60;;;;;;5093450;28;20442;-77
2021/05/16 07:12:54;;;;;;;22.33;4.40;;;13.40;85.50;;;;;;5093924;28;20033;-77
2021/05/16 07:15:20;;;;;;;23.80;4.47;;;13.40;85.20;;;;;;5089535;28;20047;-77
2021/05/16 07:17:45;;;;;;;16.05;3.80;;;13.40;85.30;;;;;;5089818;28;20036;-77
2021/05/16 07:20:12;;;;;;;23.08;4.35;;;13.40;85.60;;;;;;5054289;28;20039;-77
2021/05/16 07:22:37;;;;;;;21.67;4.13;;;13.60;85.10;;;;;;5067017;28;20123;-74
2021/05/16 07:25:04;;;;;;;20.52;4.97;;;13.60;84.20;;;;;;5077305;28;20103;-76
2021/05/16 07:27:30;;;;;;;22.23;4.80;;;13.80;84.30;;;;;;5082271;28;21759;-75
2021/05/16 07:29:56;;;;;;;18.17;5.05;;;13.90;83.20;;;;;;5079413;28;20055;-75
2021/05/16 07:32:22;;;;;;;22.10;4.07;;;14.00;83.00;;;;;;5078205;28;20032;-75
2021/05/16 07:34:47;;;;;;;25.58;4.85;;;14.10;81.80;;;;;;5048690;28;20063;-82
2021/05/16 07:37:13;;;;;;;21.23;4.05;;;14.20;80.70;;;;;;5079229;28;20051;-79
2021/05/16 07:39:39;;;;;;;21.58;4.55;;;14.20;80.00;;;;;;5073565;28;20024;-79
2021/05/16 07:42:05;;;;;;;23.48;4.68;;;14.00;79.40;;;;;;5071282;28;20028;-79
2021/05/16 07:44:31;;;;;;;22.90;4.35;;;13.90;80.00;;;;;;5041751;28;20477;-79
2021/05/16 07:46:57;;;;;;;21.17;4.65;;;13.80;80.80;;;;;;5076133;28;20546;-79
2021/05/16 07:49:22;;;;;;;20.08;4.75;;;13.90;81.30;;;;;;5058394;28;20032;-78
2021/05/16 07:51:48;;;;;;;26.73;4.60;;;14.10;81.20;;;;;;5094438;28;20028;-79
2021/05/16 07:54:13;;;;;;;18.70;3.75;;;14.40;80.50;;;;;;5070325;28;20153;-78
2021/05/16 07:56:39;;;;;;;16.80;3.25;;;14.70;79.50;;;;;;5072311;28;20036;-79
2021/05/16 07:59:05;;;;;;;16.98;3.60;;;14.70;78.00;;;;;;5069634;28;21933;-79
2021/05/16 08:01:31;;;;;;;24.77;3.60;;;14.90;77.50;;;;;;5064682;28;20036;-79
2021/05/16 08:03:57;;;;;;;20.42;3.25;;;15.30;77.00;;;;;;5048041;28;20108;-79
2021/05/16 08:06:23;;;;;;;16.98;3.63;;;15.60;74.90;;;;;;5065253;28;20139;-79
2021/05/16 08:08:49;;;;;;;24.33;3.83;;;15.70;74.20;;;;;;5092736;28;20548;-79
2021/05/16 08:11:14;;;;;;;18.95;3.47;;;15.70;73.50;;;;;;5052727;28;20044;-79
2021/05/16 08:13:40;;;;;;;23.17;4.47;;;15.50;74.60;;;;;;5054569;28;20021;-79
2021/05/16 08:16:06;;;;;;;18.05;4.10;;;15.40;75.00;;;;;;5069723;28;20059;-79
2021/05/16 08:18:31;;;;;;;19.75;3.55;;;15.50;74.80;;;;;;5049472;28;20033;-80
2021/05/16 08:20:57;;;;;;;20.38;3.67;;;15.70;74.80;;;;;;5075521;28;20082;-78
2021/05/16 08:23:22;;;;;;;20.90;3.90;;;16.00;71.70;;;;;;5049046;28;20025;-79
2021/05/16 08:25:49;;;;;;;21.23;3.55;;;16.20;71.80;;;;;;5066204;28;20424;-77
2021/05/16 08:28:15;;;;;;;19.27;3.83;;;16.20;71.30;;;;;;5071256;28;20029;-77
2021/05/16 08:30:41;;;;;;;19.48;3.33;;;15.90;70.80;;;;;;5079325;28;20075;-77
2021/05/16 08:33:07;;;;;;;16.90;3.80;;;15.70;71.90;;;;;;5072477;28;20376;-79
2021/05/16 08:35:34;;;;;;;16.50;3.42;;;15.50;73.40;;;;;;5074667;28;20029;-79
2021/05/16 08:37:59;;;;;;;18.25;3.53;;;15.30;73.60;;;;;;5071740;28;20044;-79
2021/05/16 08:40:25;;;;;;;19.10;3.38;;;14.90;73.60;;;;;;5073303;28;20028;-79
2021/05/16 08:42:51;;;;;;;23.10;2.78;;;14.70;74.20;;;;;;5055305;28;20029;-79
2021/05/16 08:45:17;;;;;;;23.42;3.92;;;14.70;74.60;;;;;;5073053;28;20495;-79
2021/05/16 08:47:44;;;;;;;20.13;3.60;;;14.80;74.60;;;;;;5071714;28;20036;-79
2021/05/16 08:50:12;;;;;;;21.13;3.90;;;14.80;74.90;;;;;;5073039;28;20025;-79
2021/05/16 08:52:38;;;;;;;23.17;3.63;;;14.70;75.50;;;;;;5073058;28;20020;-79
2021/05/16 08:55:06;;;;;;;19.65;3.47;;;14.70;76.10;;;;;;5096311;28;20493;-79
2021/05/16 08:57:31;;;;;;;21.15;3.70;;;14.90;75.40;;;;;;5079016;28;20082;-79
2021/05/16 09:00:06;;;;;;;18.13;2.95;;;15.00;75.00;;;;;;5062814;28;20039;-78
2021/05/16 09:02:32;;;;;;;18.73;3.40;;;15.30;74.90;;;;;;5097211;28;20122;-78
2021/05/16 09:04:58;;;;;;;16.67;3.55;;;15.70;73.40;;;;;;5097122;28;20142;-80
2021/05/16 09:07:31;;;;;;;23.05;3.85;;;16.20;72.40;;;;;;5097203;28;20036;-81
2021/05/16 09:09:57;;;;;;;13.27;3.35;;;16.40;71.00;;;;;;5078683;28;20129;-79
2021/05/16 09:12:23;;;;;;;18.83;3.25;;;16.60;70.30;;;;;;5096940;28;20028;-79
2021/05/16 09:14:56;;;;;;;20.02;3.55;;;16.70;69.80;;;;;;5078201;28;20519;-80
2021/05/16 09:17:52;;;;;;;12.40;2.53;;;16.80;69.10;;;;;;5095174;28;20043;-79
2021/05/16 09:20:23;;;;;;;12.80;3.40;;;17.00;67.40;;;;;;5070907;28;20038;-79
2021/05/16 09:22:50;;;;;;;16.08;2.92;;;17.00;68.20;;;;;;5077988;28;20028;-81
2021/05/16 09:25:29;;;;;;;14.40;2.65;;;17.20;66.70;;;;;;5078223;28;20035;-80
2021/05/16 09:28:04;;;;;;;13.18;2.55;;;17.10;66.80;;;;;;5077835;28;20024;-81
2021/05/16 09:30:32;;;;;;;17.92;2.67;;;17.00;66.20;;;;;;5077658;28;20024;-81
2021/05/16 09:33:02;;;;;;;15.13;2.90;;;16.90;65.90;;;;;;5078113;28;20430;-82
2021/05/16 09:35:50;;;;;;;13.15;2.72;;;16.60;64.70;;;;;;5077946;28;20032;-82
2021/05/16 09:38:21;;;;;;;18.13;2.80;;;16.40;66.80;;;;;;5077562;28;20059;-82
2021/05/16 09:40:54;;;;;;;11.68;2.22;;;16.10;68.50;;;;;;5077734;28;20020;-82
2021/05/16 09:43:25;;;;;;;16.60;2.75;;;15.90;70.30;;;;;;5095939;28;20016;-82
2021/05/16 09:46:02;;;;;;;10.55;2.28;;;15.60;72.00;;;;;;5077958;28;20039;-82
2021/05/16 09:48:30;;;;;;;12.35;2.65;;;15.40;73.10;;;;;;5077472;28;20478;-82
2021/05/16 09:51:15;;;;;;;13.65;3.15;;;15.30;74.10;;;;;;5077763;28;20103;-82
2021/05/16 09:53:52;;;;;;;12.45;2.70;;;15.30;74.80;;;;;;5095120;28;20039;-82
2021/05/16 09:56:36;;;;;;;9.45;2.20;;;15.30;74.90;;;;;;5093082;28;20036;-82
2021/05/16 10:04:35;;;;;;;16.75;3.42;;;16.40;71.40;;;;;;5065339;28;20267;-82
2021/05/16 10:07:00;;;;;;;11.40;2.60;;;16.30;70.40;;;;;;5061955;28;20029;-82
2021/05/16 10:09:26;;;;;;;14.25;2.30;;;16.20;71.80;;;;;;5076814;28;20403;-82
2021/05/16 10:11:52;;;;;;;10.65;2.13;;;16.20;73.50;;;;;;5076880;28;20061;-82
2021/05/16 10:14:24;;;;;;;11.57;2.42;;;16.20;72.10;;;;;;5076911;28;20052;-82
2021/05/16 10:16:52;;;;;;;7.72;1.98;;;16.40;71.60;;;;;;5087757;28;20387;-82
2021/05/16 10:19:29;;;;;;;8.35;1.52;;;16.40;68.30;;;;;;5095046;28;20032;-82
2021/05/16 10:22:25;;;;;;;6.53;1.55;;;16.40;68.20;;;;;;5076982;28;20028;-81
2021/05/16 10:24:51;;;;;;;9.18;2.40;;;16.50;68.30;;;;;;5067399;28;20496;-83
2021/05/16 10:27:27;;;;;;;11.85;2.30;;;16.70;68.10;;;;;;5095147;28;20140;-82
2021/05/16 10:30:05;;;;;;;10.60;2.08;;;16.80;66.10;;;;;;5094992;28;20027;-82
2021/05/16 10:32:35;;;;;;;10.00;1.85;;;16.90;66.00;;;;;;5085833;28;20028;-81
2021/05/16 10:35:04;;;;;;;9.43;1.98;;;16.90;66.40;;;;;;5074409;28;20024;-82
2021/05/16 10:37:37;;;;;;;;;;;17.00;66.20;;;;;;5076935;28;20024;-81
2021/05/16 10:40:24;;;;;;;10.40;1.92;;;17.00;66.20;;;;;;5094254;28;20011;-83
2021/05/16 10:42:53;;;;;;;9.25;1.77;;;16.90;67.40;;;;;;5093903;28;20031;-83
2021/05/16 10:45:23;;;;;;;10.93;1.95;;;16.90;66.50;;;;;;5094732;28;20103;-82
2021/05/16 10:47:54;;;;;;;9.48;2.10;;;17.20;66.00;;;;;;5094097;28;20035;-83
2021/05/16 10:50:23;;;;;;;6.13;1.60;;;17.60;63.40;;;;;;5076257;28;20024;-83
2021/05/16 10:53:08;;;;;;;12.70;1.95;;;17.90;63.80;;;;;;5094258;28;20028;-83
2021/05/16 10:55:45;;;;;;;13.30;1.88;;;18.30;62.70;;;;;;5091045;28;20137;-83
2021/05/16 10:58:35;;;;;;;10.98;2.33;;;18.50;61.10;;;;;;5075868;28;20066;-82
2021/05/16 11:01:08;;;;;;;14.55;2.30;;;18.50;62.40;;;;;;5087264;28;20142;-83
2021/05/16 11:03:55;;;;;;;13.05;2.33;;;18.40;62.70;;;;;;5094310;28;20528;-83
2021/05/16 11:06:24;;;;;;;14.35;2.38;;;18.40;61.60;;;;;;5084689;28;20035;-83
2021/05/16 11:08:50;;;;;;;7.65;1.67;;;18.40;63.40;;;;;;5087052;28;20035;-83
2021/05/16 11:11:33;;;;;;;5.95;1.70;;;18.60;63.10;;;;;;5103345;28;20107;-83
2021/05/16 11:13:59;;;;;;;10.35;1.95;;;18.80;60.00;;;;;;5087626;28;20028;-83
2021/05/16 11:16:25;;;;;;;13.00;2.22;;;18.80;59.50;;;;;;5087415;28;20027;-83
2021/05/16 11:18:51;;;;;;;8.15;1.80;;;18.80;59.50;;;;;;5060301;28;20469;-83
2021/05/16 11:21:17;;;;;;;8.95;2.00;;;19.00;60.40;;;;;;5068755;28;20608;-79
2021/05/16 11:23:47;;;;;;;10.90;2.30;;;19.20;59.30;;;;;;5095159;28;20020;-79
2021/05/16 11:26:14;;;;;;;7.85;1.60;;;19.40;58.40;;;;;;5093548;28;20028;-79
2021/05/16 11:28:58;;;;;;;8.93;2.15;;;19.40;56.60;;;;;;5093138;28;20016;-80
2021/05/16 11:31:26;;;;;;;10.93;1.65;;;19.50;57.20;;;;;;5065564;28;20498;-80
2021/05/16 11:33:54;;;;;;;10.60;1.88;;;19.50;54.90;;;;;;5090349;28;20036;-79
2021/05/16 11:36:28;;;;;;;8.48;1.90;;;19.60;54.70;;;;;;5049793;28;20488;-79
2021/05/16 11:38:56;;;;;;;12.43;2.03;;;19.80;55.10;;;;;;5061561;28;20748;-79
2021/05/16 11:41:24;;;;;;;6.07;1.58;;;19.80;55.70;;;;;;5070415;28;20603;-79
2021/05/16 11:43:50;;;;;;;10.05;2.28;;;19.90;54.70;;;;;;5078524;28;20104;-79
2021/05/16 11:46:24;;;;;;;7.93;1.85;;;19.90;54.10;;;;;;5071139;28;20709;-79
2021/05/16 11:48:50;;;;;;;7.82;1.60;;;20.00;54.30;;;;;;5069132;28;20089;-80
2021/05/16 11:51:17;;;;;;;8.18;1.58;;;20.30;54.60;;;;;;5077638;28;20028;-80
2021/05/16 11:53:51;;;;;;;4.70;1.45;;;20.50;53.20;;;;;;5091783;28;20146;-80
2021/05/16 11:56:25;;;;;;;11.95;1.90;;;20.60;53.40;;;;;;5084975;28;20115;-79
2021/05/16 11:58:52;;;;;;;7.68;1.92;;;20.50;52.10;;;;;;5089834;28;20024;-76
2021/05/16 12:01:19;;;;;;;6.75;1.65;;;20.30;53.70;;;;;;5087455;28;20046;-77
2021/05/16 12:03:56;;;;;;;11.32;2.00;;;20.20;53.30;;;;;;5081029;28;20463;-77
2021/05/16 12:06:21;;;;;;;6.63;1.90;;;20.20;52.20;;;;;;5064729;28;21522;-78
2021/05/16 12:09:19;;;;;;;12.15;2.03;;;20.20;51.90;;;;;;5084562;28;20028;-76
2021/05/16 12:11:47;;;;;;;7.35;1.48;;;20.00;52.60;;;;;;5079631;28;20071;-78
2021/05/16 12:14:16;;;;;;;9.57;1.95;;;19.90;52.80;;;;;;5070274;28;20035;-77
2021/05/16 12:17:02;;;;;;;6.60;1.85;;;19.80;53.80;;;;;;5087196;28;20090;-77
2021/05/16 12:19:30;;;;;;;9.35;1.50;;;19.70;52.80;;;;;;5091342;28;20632;-78
2021/05/16 12:22:00;;;;;;;7.55;1.40;;;19.90;52.30;;;;;;5075540;28;20368;-78
2021/05/16 12:24:33;;;;;;;6.82;1.42;;;20.00;52.00;;;;;;5092326;28;20036;-78
2021/05/16 12:27:00;;;;;;;8.45;1.83;;;19.80;51.80;;;;;;5073072;28;20035;-78
2021/05/16 12:29:27;;;;;;;7.57;1.60;;;19.70;52.30;;;;;;5081876;28;20081;-78
2021/05/16 12:31:53;;;;;;;15.40;2.13;;;19.60;53.70;;;;;;5079609;28;20048;-77
2021/05/16 12:34:23;;;;;;;7.57;1.60;;;19.50;53.70;;;;;;5079207;28;20366;-77
2021/05/16 12:36:54;;;;;;;6.88;1.20;;;19.40;54.90;;;;;;5079173;28;20393;-79
2021/05/16 12:39:39;;;;;;;9.77;1.48;;;19.30;53.90;;;;;;5060000;28;20039;-79
2021/05/16 12:42:30;;;;;;;5.38;1.05;;;19.10;55.10;;;;;;5081835;28;20107;-78
2021/05/16 12:45:23;;;;;;;4.95;0.80;;;18.90;52.60;;;;;;5094154;28;20020;-78
2021/05/16 12:47:55;;;;;;;3.53;0.90;;;18.90;53.10;;;;;;5076129;28;20029;-77
2021/05/16 12:50:34;;;;;;;3.88;1.13;;;19.00;53.60;;;;;;5078806;28;20050;-77